<?xml version="1.0" encoding="UTF-8" standalone="no" ?>
<gpx xmlns="http://www.topografix.com/GPX/1/1" xmlns:xsi="http://www.w3.org/2001/XMLSchema-instance" xsi:schemaLocation="http://www.topografix.com/GPX/1/1 http://www.topografix.com/GPX/1/1/gpx.xsd" version="1.1" creator="VisuGPX - https://www.visugpx.com">
  <metadata>
    <name>Essai</name>
    <desc><![CDATA[grp_trc:]]></desc>
  </metadata>
  <trk>
    <name><![CDATA[17 août 2024 Gardanne ]]></name>
    <cmt><![CDATA[10:12:05]]></cmt>
    <desc><![CDATA[comment ...]]></desc>
    <trkseg>
      <trkpt lat="43.44439" lon="5.46552">
        <ele>259</ele>
        <time>2024-08-17T08:12:07Z</time>
      </trkpt>
      <trkpt lat="43.44439" lon="5.46552">
        <ele>259</ele>
        <time>2024-08-17T08:12:09Z</time>
      </trkpt>
      <trkpt lat="43.4444" lon="5.46545">
        <ele>259</ele>
        <time>2024-08-17T08:12:17Z</time>
      </trkpt>
      <trkpt lat="43.44445" lon="5.46544">
        <ele>259</ele>
        <time>2024-08-17T08:12:21Z</time>
      </trkpt>
      <trkpt lat="43.44449" lon="5.46545">
        <ele>259</ele>
        <time>2024-08-17T08:12:27Z</time>
      </trkpt>
      <trkpt lat="43.44469" lon="5.46546">
        <ele>259</ele>
        <time>2024-08-17T08:12:43Z</time>
      </trkpt>
      <trkpt lat="43.44479" lon="5.46547">
        <ele>260</ele>
        <time>2024-08-17T08:12:51Z</time>
      </trkpt>
      <trkpt lat="43.44498" lon="5.46539">
        <ele>260</ele>
        <time>2024-08-17T08:13:07Z</time>
      </trkpt>
      <trkpt lat="43.44527" lon="5.46508">
        <ele>260</ele>
        <time>2024-08-17T08:13:39Z</time>
      </trkpt>
      <trkpt lat="43.4454" lon="5.46497">
        <ele>260</ele>
        <time>2024-08-17T08:13:55Z</time>
      </trkpt>
      <trkpt lat="43.44579" lon="5.46502">
        <ele>261</ele>
        <time>2024-08-17T08:14:27Z</time>
      </trkpt>
      <trkpt lat="43.44584" lon="5.46505">
        <ele>261</ele>
        <time>2024-08-17T08:14:31Z</time>
      </trkpt>
      <trkpt lat="43.44589" lon="5.46507">
        <ele>261</ele>
        <time>2024-08-17T08:14:35Z</time>
      </trkpt>
      <trkpt lat="43.44618" lon="5.46523">
        <ele>261</ele>
        <time>2024-08-17T08:14:59Z</time>
      </trkpt>
      <trkpt lat="43.44621" lon="5.46524">
        <ele>261</ele>
        <time>2024-08-17T08:15:03Z</time>
      </trkpt>
      <trkpt lat="43.44626" lon="5.46525">
        <ele>261</ele>
        <time>2024-08-17T08:15:07Z</time>
      </trkpt>
      <trkpt lat="43.44636" lon="5.46531">
        <ele>262</ele>
        <time>2024-08-17T08:15:15Z</time>
      </trkpt>
      <trkpt lat="43.44641" lon="5.46533">
        <ele>262</ele>
        <time>2024-08-17T08:15:19Z</time>
      </trkpt>
      <trkpt lat="43.44644" lon="5.46535">
        <ele>262</ele>
        <time>2024-08-17T08:15:23Z</time>
      </trkpt>
      <trkpt lat="43.44652" lon="5.46544">
        <ele>262</ele>
        <time>2024-08-17T08:15:31Z</time>
      </trkpt>
      <trkpt lat="43.44667" lon="5.46552">
        <ele>262</ele>
        <time>2024-08-17T08:15:43Z</time>
      </trkpt>
      <trkpt lat="43.44675" lon="5.46563">
        <ele>263</ele>
        <time>2024-08-17T08:15:51Z</time>
      </trkpt>
      <trkpt lat="43.44676" lon="5.46569">
        <ele>263</ele>
        <time>2024-08-17T08:15:55Z</time>
      </trkpt>
      <trkpt lat="43.44693" lon="5.46584">
        <ele>263</ele>
        <time>2024-08-17T08:16:27Z</time>
      </trkpt>
      <trkpt lat="43.44697" lon="5.46586">
        <ele>263</ele>
        <time>2024-08-17T08:16:31Z</time>
      </trkpt>
      <trkpt lat="43.44703" lon="5.46589">
        <ele>263</ele>
        <time>2024-08-17T08:16:35Z</time>
      </trkpt>
      <trkpt lat="43.44718" lon="5.46593">
        <ele>263</ele>
        <time>2024-08-17T08:16:47Z</time>
      </trkpt>
      <trkpt lat="43.44723" lon="5.46596">
        <ele>262</ele>
        <time>2024-08-17T08:16:51Z</time>
      </trkpt>
      <trkpt lat="43.44737" lon="5.46606">
        <ele>262</ele>
        <time>2024-08-17T08:17:03Z</time>
      </trkpt>
      <trkpt lat="43.44747" lon="5.46615">
        <ele>262</ele>
        <time>2024-08-17T08:17:11Z</time>
      </trkpt>
      <trkpt lat="43.4478" lon="5.46639">
        <ele>262</ele>
        <time>2024-08-17T08:17:43Z</time>
      </trkpt>
      <trkpt lat="43.44785" lon="5.46642">
        <ele>262</ele>
        <time>2024-08-17T08:17:47Z</time>
      </trkpt>
      <trkpt lat="43.44814" lon="5.46657">
        <ele>262</ele>
        <time>2024-08-17T08:18:11Z</time>
      </trkpt>
      <trkpt lat="43.44831" lon="5.46671">
        <ele>261</ele>
        <time>2024-08-17T08:18:27Z</time>
      </trkpt>
      <trkpt lat="43.44848" lon="5.46682">
        <ele>261</ele>
        <time>2024-08-17T08:18:43Z</time>
      </trkpt>
      <trkpt lat="43.44852" lon="5.46683">
        <ele>261</ele>
        <time>2024-08-17T08:18:47Z</time>
      </trkpt>
      <trkpt lat="43.44857" lon="5.46684">
        <ele>261</ele>
        <time>2024-08-17T08:18:51Z</time>
      </trkpt>
      <trkpt lat="43.44866" lon="5.46688">
        <ele>261</ele>
        <time>2024-08-17T08:18:59Z</time>
      </trkpt>
      <trkpt lat="43.4487" lon="5.46692">
        <ele>261</ele>
        <time>2024-08-17T08:19:03Z</time>
      </trkpt>
      <trkpt lat="43.44876" lon="5.46694">
        <ele>261</ele>
        <time>2024-08-17T08:19:07Z</time>
      </trkpt>
      <trkpt lat="43.44885" lon="5.46699">
        <ele>260</ele>
        <time>2024-08-17T08:19:15Z</time>
      </trkpt>
      <trkpt lat="43.44898" lon="5.46704">
        <ele>260</ele>
        <time>2024-08-17T08:19:27Z</time>
      </trkpt>
      <trkpt lat="43.44909" lon="5.46708">
        <ele>260</ele>
        <time>2024-08-17T08:19:35Z</time>
      </trkpt>
      <trkpt lat="43.44914" lon="5.4671">
        <ele>260</ele>
        <time>2024-08-17T08:19:39Z</time>
      </trkpt>
      <trkpt lat="43.44931" lon="5.46715">
        <ele>260</ele>
        <time>2024-08-17T08:20:09Z</time>
      </trkpt>
      <trkpt lat="43.44935" lon="5.46716">
        <ele>260</ele>
        <time>2024-08-17T08:20:13Z</time>
      </trkpt>
      <trkpt lat="43.44961" lon="5.46723">
        <ele>260</ele>
        <time>2024-08-17T08:20:31Z</time>
      </trkpt>
      <trkpt lat="43.44972" lon="5.46725">
        <ele>260</ele>
        <time>2024-08-17T08:20:39Z</time>
      </trkpt>
      <trkpt lat="43.44981" lon="5.46727">
        <ele>260</ele>
        <time>2024-08-17T08:20:47Z</time>
      </trkpt>
      <trkpt lat="43.44986" lon="5.46728">
        <ele>260</ele>
        <time>2024-08-17T08:20:51Z</time>
      </trkpt>
      <trkpt lat="43.44991" lon="5.46729">
        <ele>260</ele>
        <time>2024-08-17T08:20:55Z</time>
      </trkpt>
      <trkpt lat="43.44994" lon="5.46733">
        <ele>260</ele>
        <time>2024-08-17T08:20:59Z</time>
      </trkpt>
      <trkpt lat="43.44999" lon="5.46731">
        <ele>260</ele>
        <time>2024-08-17T08:21:03Z</time>
      </trkpt>
      <trkpt lat="43.45009" lon="5.46732">
        <ele>260</ele>
        <time>2024-08-17T08:21:11Z</time>
      </trkpt>
      <trkpt lat="43.45013" lon="5.46734">
        <ele>259</ele>
        <time>2024-08-17T08:21:15Z</time>
      </trkpt>
      <trkpt lat="43.4504" lon="5.46745">
        <ele>259</ele>
        <time>2024-08-17T08:21:35Z</time>
      </trkpt>
      <trkpt lat="43.4506" lon="5.46744">
        <ele>258</ele>
        <time>2024-08-17T08:21:53Z</time>
      </trkpt>
      <trkpt lat="43.45065" lon="5.46744">
        <ele>258</ele>
        <time>2024-08-17T08:21:59Z</time>
      </trkpt>
      <trkpt lat="43.45076" lon="5.46742">
        <ele>258</ele>
        <time>2024-08-17T08:22:07Z</time>
      </trkpt>
      <trkpt lat="43.45081" lon="5.46741">
        <ele>258</ele>
        <time>2024-08-17T08:22:11Z</time>
      </trkpt>
      <trkpt lat="43.4511" lon="5.4674">
        <ele>258</ele>
        <time>2024-08-17T08:22:35Z</time>
      </trkpt>
      <trkpt lat="43.4512" lon="5.46741">
        <ele>258</ele>
        <time>2024-08-17T08:22:43Z</time>
      </trkpt>
      <trkpt lat="43.45125" lon="5.46739">
        <ele>258</ele>
        <time>2024-08-17T08:22:47Z</time>
      </trkpt>
      <trkpt lat="43.45131" lon="5.4674">
        <ele>257</ele>
        <time>2024-08-17T08:22:51Z</time>
      </trkpt>
      <trkpt lat="43.45136" lon="5.46739">
        <ele>257</ele>
        <time>2024-08-17T08:22:55Z</time>
      </trkpt>
      <trkpt lat="43.4514" lon="5.46739">
        <ele>257</ele>
        <time>2024-08-17T08:22:59Z</time>
      </trkpt>
      <trkpt lat="43.45149" lon="5.46741">
        <ele>257</ele>
        <time>2024-08-17T08:23:07Z</time>
      </trkpt>
      <trkpt lat="43.45169" lon="5.46742">
        <ele>257</ele>
        <time>2024-08-17T08:23:23Z</time>
      </trkpt>
      <trkpt lat="43.45194" lon="5.46735">
        <ele>256</ele>
        <time>2024-08-17T08:23:43Z</time>
      </trkpt>
      <trkpt lat="43.45199" lon="5.46735">
        <ele>256</ele>
        <time>2024-08-17T08:23:47Z</time>
      </trkpt>
      <trkpt lat="43.4521" lon="5.46731">
        <ele>255</ele>
        <time>2024-08-17T08:23:59Z</time>
      </trkpt>
      <trkpt lat="43.45214" lon="5.46728">
        <ele>255</ele>
        <time>2024-08-17T08:24:03Z</time>
      </trkpt>
      <trkpt lat="43.45246" lon="5.467">
        <ele>253</ele>
        <time>2024-08-17T08:24:34Z</time>
      </trkpt>
      <trkpt lat="43.4525" lon="5.46698">
        <ele>253</ele>
        <time>2024-08-17T08:24:40Z</time>
      </trkpt>
      <trkpt lat="43.45255" lon="5.46697">
        <ele>252</ele>
        <time>2024-08-17T08:24:44Z</time>
      </trkpt>
      <trkpt lat="43.45258" lon="5.467">
        <ele>252</ele>
        <time>2024-08-17T08:24:48Z</time>
      </trkpt>
      <trkpt lat="43.45261" lon="5.46705">
        <ele>252</ele>
        <time>2024-08-17T08:24:52Z</time>
      </trkpt>
      <trkpt lat="43.45255" lon="5.46733">
        <ele>250</ele>
        <time>2024-08-17T08:25:08Z</time>
      </trkpt>
      <trkpt lat="43.45253" lon="5.46738">
        <ele>249</ele>
        <time>2024-08-17T08:25:12Z</time>
      </trkpt>
      <trkpt lat="43.45249" lon="5.46756">
        <ele>248</ele>
        <time>2024-08-17T08:25:24Z</time>
      </trkpt>
      <trkpt lat="43.45229" lon="5.4679">
        <ele>245</ele>
        <time>2024-08-17T08:25:48Z</time>
      </trkpt>
      <trkpt lat="43.45226" lon="5.46795">
        <ele>245</ele>
        <time>2024-08-17T08:25:52Z</time>
      </trkpt>
      <trkpt lat="43.45218" lon="5.46811">
        <ele>243</ele>
        <time>2024-08-17T08:26:04Z</time>
      </trkpt>
      <trkpt lat="43.45214" lon="5.46817">
        <ele>243</ele>
        <time>2024-08-17T08:26:08Z</time>
      </trkpt>
      <trkpt lat="43.45207" lon="5.46827">
        <ele>243</ele>
        <time>2024-08-17T08:26:14Z</time>
      </trkpt>
      <trkpt lat="43.45203" lon="5.46833">
        <ele>242</ele>
        <time>2024-08-17T08:26:18Z</time>
      </trkpt>
      <trkpt lat="43.452" lon="5.46835">
        <ele>242</ele>
        <time>2024-08-17T08:26:22Z</time>
      </trkpt>
      <trkpt lat="43.45204" lon="5.46837">
        <ele>242</ele>
        <time>2024-08-17T08:26:26Z</time>
      </trkpt>
      <trkpt lat="43.45213" lon="5.46846">
        <ele>241</ele>
        <time>2024-08-17T08:26:34Z</time>
      </trkpt>
      <trkpt lat="43.45217" lon="5.46851">
        <ele>241</ele>
        <time>2024-08-17T08:26:38Z</time>
      </trkpt>
      <trkpt lat="43.45222" lon="5.46855">
        <ele>240</ele>
        <time>2024-08-17T08:26:42Z</time>
      </trkpt>
      <trkpt lat="43.45225" lon="5.46861">
        <ele>240</ele>
        <time>2024-08-17T08:26:46Z</time>
      </trkpt>
      <trkpt lat="43.45229" lon="5.46866">
        <ele>240</ele>
        <time>2024-08-17T08:26:52Z</time>
      </trkpt>
      <trkpt lat="43.45239" lon="5.4687">
        <ele>240</ele>
        <time>2024-08-17T08:27:00Z</time>
      </trkpt>
      <trkpt lat="43.45257" lon="5.46886">
        <ele>239</ele>
        <time>2024-08-17T08:27:16Z</time>
      </trkpt>
      <trkpt lat="43.45263" lon="5.4689">
        <ele>239</ele>
        <time>2024-08-17T08:27:20Z</time>
      </trkpt>
      <trkpt lat="43.45267" lon="5.46896">
        <ele>239</ele>
        <time>2024-08-17T08:27:24Z</time>
      </trkpt>
      <trkpt lat="43.45268" lon="5.46902">
        <ele>239</ele>
        <time>2024-08-17T08:27:28Z</time>
      </trkpt>
      <trkpt lat="43.45266" lon="5.46909">
        <ele>239</ele>
        <time>2024-08-17T08:27:32Z</time>
      </trkpt>
      <trkpt lat="43.45266" lon="5.46915">
        <ele>238</ele>
        <time>2024-08-17T08:27:36Z</time>
      </trkpt>
      <trkpt lat="43.45269" lon="5.46918">
        <ele>238</ele>
        <time>2024-08-17T08:27:40Z</time>
      </trkpt>
      <trkpt lat="43.45272" lon="5.46922">
        <ele>238</ele>
        <time>2024-08-17T08:27:44Z</time>
      </trkpt>
      <trkpt lat="43.45274" lon="5.46929">
        <ele>238</ele>
        <time>2024-08-17T08:27:48Z</time>
      </trkpt>
      <trkpt lat="43.45277" lon="5.46936">
        <ele>238</ele>
        <time>2024-08-17T08:27:54Z</time>
      </trkpt>
      <trkpt lat="43.45273" lon="5.46944">
        <ele>240</ele>
        <time>2024-08-17T08:28:24Z</time>
      </trkpt>
      <trkpt lat="43.45272" lon="5.46976">
        <ele>241</ele>
        <time>2024-08-17T08:28:42Z</time>
      </trkpt>
      <trkpt lat="43.45272" lon="5.46982">
        <ele>241</ele>
        <time>2024-08-17T08:28:46Z</time>
      </trkpt>
      <trkpt lat="43.45274" lon="5.46988">
        <ele>240</ele>
        <time>2024-08-17T08:28:50Z</time>
      </trkpt>
      <trkpt lat="43.45273" lon="5.47002">
        <ele>240</ele>
        <time>2024-08-17T08:28:58Z</time>
      </trkpt>
      <trkpt lat="43.45271" lon="5.47015">
        <ele>240</ele>
        <time>2024-08-17T08:29:06Z</time>
      </trkpt>
      <trkpt lat="43.4527" lon="5.47029">
        <ele>239</ele>
        <time>2024-08-17T08:29:14Z</time>
      </trkpt>
      <trkpt lat="43.45268" lon="5.47043">
        <ele>239</ele>
        <time>2024-08-17T08:29:22Z</time>
      </trkpt>
      <trkpt lat="43.45264" lon="5.47076">
        <ele>238</ele>
        <time>2024-08-17T08:29:38Z</time>
      </trkpt>
      <trkpt lat="43.45262" lon="5.47091">
        <ele>238</ele>
        <time>2024-08-17T08:29:46Z</time>
      </trkpt>
      <trkpt lat="43.4526" lon="5.4712">
        <ele>238</ele>
        <time>2024-08-17T08:30:04Z</time>
      </trkpt>
      <trkpt lat="43.45262" lon="5.47128">
        <ele>239</ele>
        <time>2024-08-17T08:30:08Z</time>
      </trkpt>
      <trkpt lat="43.45263" lon="5.47136">
        <ele>239</ele>
        <time>2024-08-17T08:30:14Z</time>
      </trkpt>
      <trkpt lat="43.45259" lon="5.47139">
        <ele>239</ele>
        <time>2024-08-17T08:30:16Z</time>
      </trkpt>
      <trkpt lat="43.45254" lon="5.47143">
        <ele>239</ele>
        <time>2024-08-17T08:30:20Z</time>
      </trkpt>
      <trkpt lat="43.45251" lon="5.47148">
        <ele>239</ele>
        <time>2024-08-17T08:30:24Z</time>
      </trkpt>
      <trkpt lat="43.45249" lon="5.47155">
        <ele>239</ele>
        <time>2024-08-17T08:30:28Z</time>
      </trkpt>
      <trkpt lat="43.45245" lon="5.47163">
        <ele>239</ele>
        <time>2024-08-17T08:30:32Z</time>
      </trkpt>
      <trkpt lat="43.45238" lon="5.47186">
        <ele>239</ele>
        <time>2024-08-17T08:30:44Z</time>
      </trkpt>
      <trkpt lat="43.45239" lon="5.47192">
        <ele>239</ele>
        <time>2024-08-17T08:30:48Z</time>
      </trkpt>
      <trkpt lat="43.45243" lon="5.47196">
        <ele>239</ele>
        <time>2024-08-17T08:30:52Z</time>
      </trkpt>
      <trkpt lat="43.45249" lon="5.47208">
        <ele>239</ele>
        <time>2024-08-17T08:31:00Z</time>
      </trkpt>
      <trkpt lat="43.45253" lon="5.47253">
        <ele>239</ele>
        <time>2024-08-17T08:31:24Z</time>
      </trkpt>
      <trkpt lat="43.45252" lon="5.4726">
        <ele>239</ele>
        <time>2024-08-17T08:31:28Z</time>
      </trkpt>
      <trkpt lat="43.45249" lon="5.47289">
        <ele>240</ele>
        <time>2024-08-17T08:31:44Z</time>
      </trkpt>
      <trkpt lat="43.45228" lon="5.47343">
        <ele>239</ele>
        <time>2024-08-17T08:32:16Z</time>
      </trkpt>
      <trkpt lat="43.45224" lon="5.47363">
        <ele>239</ele>
        <time>2024-08-17T08:32:28Z</time>
      </trkpt>
      <trkpt lat="43.45219" lon="5.47385">
        <ele>239</ele>
        <time>2024-08-17T08:32:42Z</time>
      </trkpt>
      <trkpt lat="43.45217" lon="5.47392">
        <ele>238</ele>
        <time>2024-08-17T08:32:46Z</time>
      </trkpt>
      <trkpt lat="43.45211" lon="5.47395">
        <ele>238</ele>
        <time>2024-08-17T08:32:50Z</time>
      </trkpt>
      <trkpt lat="43.45207" lon="5.47396">
        <ele>237</ele>
        <time>2024-08-17T08:32:54Z</time>
      </trkpt>
      <trkpt lat="43.45195" lon="5.47411">
        <ele>235</ele>
        <time>2024-08-17T08:33:04Z</time>
      </trkpt>
      <trkpt lat="43.45198" lon="5.47424">
        <ele>234</ele>
        <time>2024-08-17T08:33:12Z</time>
      </trkpt>
      <trkpt lat="43.45176" lon="5.47477">
        <ele>229</ele>
        <time>2024-08-17T08:33:44Z</time>
      </trkpt>
      <trkpt lat="43.4516" lon="5.47502">
        <ele>226</ele>
        <time>2024-08-17T08:34:14Z</time>
      </trkpt>
      <trkpt lat="43.45137" lon="5.47546">
        <ele>223</ele>
        <time>2024-08-17T08:34:46Z</time>
      </trkpt>
      <trkpt lat="43.45128" lon="5.47564">
        <ele>222</ele>
        <time>2024-08-17T08:35:02Z</time>
      </trkpt>
      <trkpt lat="43.45121" lon="5.47572">
        <ele>222</ele>
        <time>2024-08-17T08:35:10Z</time>
      </trkpt>
      <trkpt lat="43.45099" lon="5.47613">
        <ele>221</ele>
        <time>2024-08-17T08:35:42Z</time>
      </trkpt>
      <trkpt lat="43.45095" lon="5.47619">
        <ele>221</ele>
        <time>2024-08-17T08:35:46Z</time>
      </trkpt>
      <trkpt lat="43.45092" lon="5.47624">
        <ele>221</ele>
        <time>2024-08-17T08:35:50Z</time>
      </trkpt>
      <trkpt lat="43.45084" lon="5.47631">
        <ele>220</ele>
        <time>2024-08-17T08:35:58Z</time>
      </trkpt>
      <trkpt lat="43.45073" lon="5.47646">
        <ele>220</ele>
        <time>2024-08-17T08:36:10Z</time>
      </trkpt>
      <trkpt lat="43.45071" lon="5.47651">
        <ele>220</ele>
        <time>2024-08-17T08:36:14Z</time>
      </trkpt>
      <trkpt lat="43.45067" lon="5.47658">
        <ele>220</ele>
        <time>2024-08-17T08:36:18Z</time>
      </trkpt>
      <trkpt lat="43.45063" lon="5.47662">
        <ele>220</ele>
        <time>2024-08-17T08:36:22Z</time>
      </trkpt>
      <trkpt lat="43.45058" lon="5.47665">
        <ele>220</ele>
        <time>2024-08-17T08:36:26Z</time>
      </trkpt>
      <trkpt lat="43.45058" lon="5.47664">
        <ele>220</ele>
        <time>2024-08-17T08:36:38Z</time>
      </trkpt>
      <trkpt lat="43.45053" lon="5.47661">
        <ele>220</ele>
        <time>2024-08-17T08:36:44Z</time>
      </trkpt>
      <trkpt lat="43.45048" lon="5.47661">
        <ele>220</ele>
        <time>2024-08-17T08:36:46Z</time>
      </trkpt>
      <trkpt lat="43.45036" lon="5.47667">
        <ele>220</ele>
        <time>2024-08-17T08:37:18Z</time>
      </trkpt>
      <trkpt lat="43.45032" lon="5.47676">
        <ele>219</ele>
        <time>2024-08-17T08:38:26Z</time>
      </trkpt>
      <trkpt lat="43.45035" lon="5.4768">
        <ele>218</ele>
        <time>2024-08-17T08:39:22Z</time>
      </trkpt>
      <trkpt lat="43.45031" lon="5.47683">
        <ele>218</ele>
        <time>2024-08-17T08:39:56Z</time>
      </trkpt>
      <trkpt lat="43.45028" lon="5.47685">
        <ele>218</ele>
        <time>2024-08-17T08:41:44Z</time>
      </trkpt>
      <trkpt lat="43.45029" lon="5.47681">
        <ele>218</ele>
        <time>2024-08-17T08:42:14Z</time>
      </trkpt>
      <trkpt lat="43.45032" lon="5.47678">
        <ele>218</ele>
        <time>2024-08-17T08:44:34Z</time>
      </trkpt>
      <trkpt lat="43.45034" lon="5.47673">
        <ele>218</ele>
        <time>2024-08-17T08:52:12Z</time>
      </trkpt>
      <trkpt lat="43.45038" lon="5.47671">
        <ele>217</ele>
        <time>2024-08-17T08:54:30Z</time>
      </trkpt>
      <trkpt lat="43.45044" lon="5.47672">
        <ele>217</ele>
        <time>2024-08-17T08:54:34Z</time>
      </trkpt>
      <trkpt lat="43.45048" lon="5.47676">
        <ele>217</ele>
        <time>2024-08-17T08:54:38Z</time>
      </trkpt>
      <trkpt lat="43.45051" lon="5.47682">
        <ele>217</ele>
        <time>2024-08-17T08:54:42Z</time>
      </trkpt>
      <trkpt lat="43.45055" lon="5.47684">
        <ele>217</ele>
        <time>2024-08-17T08:54:46Z</time>
      </trkpt>
      <trkpt lat="43.4506" lon="5.47678">
        <ele>217</ele>
        <time>2024-08-17T08:54:50Z</time>
      </trkpt>
      <trkpt lat="43.45067" lon="5.47659">
        <ele>217</ele>
        <time>2024-08-17T08:55:02Z</time>
      </trkpt>
      <trkpt lat="43.4507" lon="5.47652">
        <ele>217</ele>
        <time>2024-08-17T08:55:06Z</time>
      </trkpt>
      <trkpt lat="43.45073" lon="5.47646">
        <ele>217</ele>
        <time>2024-08-17T08:55:10Z</time>
      </trkpt>
      <trkpt lat="43.45077" lon="5.47641">
        <ele>217</ele>
        <time>2024-08-17T08:55:14Z</time>
      </trkpt>
      <trkpt lat="43.4508" lon="5.47638">
        <ele>217</ele>
        <time>2024-08-17T08:55:18Z</time>
      </trkpt>
      <trkpt lat="43.45084" lon="5.47635">
        <ele>217</ele>
        <time>2024-08-17T08:55:22Z</time>
      </trkpt>
      <trkpt lat="43.45088" lon="5.47631">
        <ele>217</ele>
        <time>2024-08-17T08:55:26Z</time>
      </trkpt>
      <trkpt lat="43.45113" lon="5.47586">
        <ele>217</ele>
        <time>2024-08-17T08:55:58Z</time>
      </trkpt>
      <trkpt lat="43.45129" lon="5.47565">
        <ele>217</ele>
        <time>2024-08-17T08:56:14Z</time>
      </trkpt>
      <trkpt lat="43.45132" lon="5.47562">
        <ele>217</ele>
        <time>2024-08-17T08:56:18Z</time>
      </trkpt>
      <trkpt lat="43.45147" lon="5.47532">
        <ele>217</ele>
        <time>2024-08-17T08:56:42Z</time>
      </trkpt>
      <trkpt lat="43.45152" lon="5.47521">
        <ele>217</ele>
        <time>2024-08-17T08:56:50Z</time>
      </trkpt>
      <trkpt lat="43.45175" lon="5.47479">
        <ele>217</ele>
        <time>2024-08-17T08:57:22Z</time>
      </trkpt>
      <trkpt lat="43.45193" lon="5.47447">
        <ele>216</ele>
        <time>2024-08-17T08:57:48Z</time>
      </trkpt>
      <trkpt lat="43.45195" lon="5.47441">
        <ele>216</ele>
        <time>2024-08-17T08:57:52Z</time>
      </trkpt>
      <trkpt lat="43.45196" lon="5.47433">
        <ele>216</ele>
        <time>2024-08-17T08:57:56Z</time>
      </trkpt>
      <trkpt lat="43.45196" lon="5.47426">
        <ele>216</ele>
        <time>2024-08-17T08:58:00Z</time>
      </trkpt>
      <trkpt lat="43.45195" lon="5.47419">
        <ele>216</ele>
        <time>2024-08-17T08:58:04Z</time>
      </trkpt>
      <trkpt lat="43.45195" lon="5.47413">
        <ele>216</ele>
        <time>2024-08-17T08:58:08Z</time>
      </trkpt>
      <trkpt lat="43.45198" lon="5.47409">
        <ele>216</ele>
        <time>2024-08-17T08:58:12Z</time>
      </trkpt>
      <trkpt lat="43.45205" lon="5.47404">
        <ele>216</ele>
        <time>2024-08-17T08:58:20Z</time>
      </trkpt>
      <trkpt lat="43.45214" lon="5.47399">
        <ele>216</ele>
        <time>2024-08-17T08:58:30Z</time>
      </trkpt>
      <trkpt lat="43.45217" lon="5.47385">
        <ele>216</ele>
        <time>2024-08-17T08:58:36Z</time>
      </trkpt>
      <trkpt lat="43.45223" lon="5.47372">
        <ele>216</ele>
        <time>2024-08-17T08:58:44Z</time>
      </trkpt>
      <trkpt lat="43.45238" lon="5.47332">
        <ele>219</ele>
        <time>2024-08-17T08:59:10Z</time>
      </trkpt>
      <trkpt lat="43.45243" lon="5.4732">
        <ele>221</ele>
        <time>2024-08-17T08:59:18Z</time>
      </trkpt>
      <trkpt lat="43.45247" lon="5.47294">
        <ele>224</ele>
        <time>2024-08-17T08:59:34Z</time>
      </trkpt>
      <trkpt lat="43.4525" lon="5.4728">
        <ele>226</ele>
        <time>2024-08-17T08:59:42Z</time>
      </trkpt>
      <trkpt lat="43.45253" lon="5.47273">
        <ele>226</ele>
        <time>2024-08-17T08:59:46Z</time>
      </trkpt>
      <trkpt lat="43.45256" lon="5.47267">
        <ele>227</ele>
        <time>2024-08-17T08:59:50Z</time>
      </trkpt>
      <trkpt lat="43.45257" lon="5.47258">
        <ele>228</ele>
        <time>2024-08-17T08:59:56Z</time>
      </trkpt>
      <trkpt lat="43.45253" lon="5.47251">
        <ele>228</ele>
        <time>2024-08-17T09:00:00Z</time>
      </trkpt>
      <trkpt lat="43.45251" lon="5.47227">
        <ele>230</ele>
        <time>2024-08-17T09:00:16Z</time>
      </trkpt>
      <trkpt lat="43.4525" lon="5.47213">
        <ele>230</ele>
        <time>2024-08-17T09:00:24Z</time>
      </trkpt>
      <trkpt lat="43.45246" lon="5.47209">
        <ele>231</ele>
        <time>2024-08-17T09:00:28Z</time>
      </trkpt>
      <trkpt lat="43.45242" lon="5.47204">
        <ele>231</ele>
        <time>2024-08-17T09:00:32Z</time>
      </trkpt>
      <trkpt lat="43.45241" lon="5.47197">
        <ele>231</ele>
        <time>2024-08-17T09:00:36Z</time>
      </trkpt>
      <trkpt lat="43.45241" lon="5.47191">
        <ele>231</ele>
        <time>2024-08-17T09:00:40Z</time>
      </trkpt>
      <trkpt lat="43.45242" lon="5.4718">
        <ele>232</ele>
        <time>2024-08-17T09:00:48Z</time>
      </trkpt>
      <trkpt lat="43.45251" lon="5.47158">
        <ele>232</ele>
        <time>2024-08-17T09:01:08Z</time>
      </trkpt>
      <trkpt lat="43.45253" lon="5.47152">
        <ele>233</ele>
        <time>2024-08-17T09:01:12Z</time>
      </trkpt>
      <trkpt lat="43.45254" lon="5.47145">
        <ele>233</ele>
        <time>2024-08-17T09:01:16Z</time>
      </trkpt>
      <trkpt lat="43.45259" lon="5.4712">
        <ele>234</ele>
        <time>2024-08-17T09:01:28Z</time>
      </trkpt>
      <trkpt lat="43.45266" lon="5.47086">
        <ele>235</ele>
        <time>2024-08-17T09:01:48Z</time>
      </trkpt>
      <trkpt lat="43.45271" lon="5.47055">
        <ele>236</ele>
        <time>2024-08-17T09:02:04Z</time>
      </trkpt>
      <trkpt lat="43.45272" lon="5.4704">
        <ele>236</ele>
        <time>2024-08-17T09:02:12Z</time>
      </trkpt>
      <trkpt lat="43.45274" lon="5.46998">
        <ele>237</ele>
        <time>2024-08-17T09:02:36Z</time>
      </trkpt>
      <trkpt lat="43.45277" lon="5.46962">
        <ele>238</ele>
        <time>2024-08-17T09:02:56Z</time>
      </trkpt>
      <trkpt lat="43.45277" lon="5.46956">
        <ele>238</ele>
        <time>2024-08-17T09:03:00Z</time>
      </trkpt>
      <trkpt lat="43.45275" lon="5.46948">
        <ele>238</ele>
        <time>2024-08-17T09:03:04Z</time>
      </trkpt>
      <trkpt lat="43.45274" lon="5.46943">
        <ele>238</ele>
        <time>2024-08-17T09:03:08Z</time>
      </trkpt>
      <trkpt lat="43.45281" lon="5.46936">
        <ele>238</ele>
        <time>2024-08-17T09:03:12Z</time>
      </trkpt>
      <trkpt lat="43.45284" lon="5.46931">
        <ele>238</ele>
        <time>2024-08-17T09:03:16Z</time>
      </trkpt>
      <trkpt lat="43.45283" lon="5.46924">
        <ele>238</ele>
        <time>2024-08-17T09:03:20Z</time>
      </trkpt>
      <trkpt lat="43.45274" lon="5.46913">
        <ele>238</ele>
        <time>2024-08-17T09:03:28Z</time>
      </trkpt>
      <trkpt lat="43.45271" lon="5.46907">
        <ele>238</ele>
        <time>2024-08-17T09:03:32Z</time>
      </trkpt>
      <trkpt lat="43.45271" lon="5.46902">
        <ele>238</ele>
        <time>2024-08-17T09:03:36Z</time>
      </trkpt>
      <trkpt lat="43.45271" lon="5.46896">
        <ele>238</ele>
        <time>2024-08-17T09:03:40Z</time>
      </trkpt>
      <trkpt lat="43.45266" lon="5.46891">
        <ele>238</ele>
        <time>2024-08-17T09:03:44Z</time>
      </trkpt>
      <trkpt lat="43.45258" lon="5.46886">
        <ele>238</ele>
        <time>2024-08-17T09:03:50Z</time>
      </trkpt>
      <trkpt lat="43.45254" lon="5.46882">
        <ele>238</ele>
        <time>2024-08-17T09:03:54Z</time>
      </trkpt>
      <trkpt lat="43.45239" lon="5.46881">
        <ele>238</ele>
        <time>2024-08-17T09:04:08Z</time>
      </trkpt>
      <trkpt lat="43.45235" lon="5.46881">
        <ele>238</ele>
        <time>2024-08-17T09:04:12Z</time>
      </trkpt>
      <trkpt lat="43.45231" lon="5.46879">
        <ele>238</ele>
        <time>2024-08-17T09:04:16Z</time>
      </trkpt>
      <trkpt lat="43.45228" lon="5.46874">
        <ele>239</ele>
        <time>2024-08-17T09:04:20Z</time>
      </trkpt>
      <trkpt lat="43.45229" lon="5.46866">
        <ele>239</ele>
        <time>2024-08-17T09:04:22Z</time>
      </trkpt>
      <trkpt lat="43.45231" lon="5.46853">
        <ele>239</ele>
        <time>2024-08-17T09:04:26Z</time>
      </trkpt>
      <trkpt lat="43.45231" lon="5.46845">
        <ele>239</ele>
        <time>2024-08-17T09:04:30Z</time>
      </trkpt>
      <trkpt lat="43.45226" lon="5.46831">
        <ele>240</ele>
        <time>2024-08-17T09:04:42Z</time>
      </trkpt>
      <trkpt lat="43.45221" lon="5.46827">
        <ele>240</ele>
        <time>2024-08-17T09:04:46Z</time>
      </trkpt>
      <trkpt lat="43.45218" lon="5.46824">
        <ele>240</ele>
        <time>2024-08-17T09:04:50Z</time>
      </trkpt>
      <trkpt lat="43.45232" lon="5.46791">
        <ele>240</ele>
        <time>2024-08-17T09:05:18Z</time>
      </trkpt>
      <trkpt lat="43.45234" lon="5.46785">
        <ele>240</ele>
        <time>2024-08-17T09:05:22Z</time>
      </trkpt>
      <trkpt lat="43.45237" lon="5.4678">
        <ele>240</ele>
        <time>2024-08-17T09:05:26Z</time>
      </trkpt>
      <trkpt lat="43.4524" lon="5.46774">
        <ele>240</ele>
        <time>2024-08-17T09:05:30Z</time>
      </trkpt>
      <trkpt lat="43.45242" lon="5.46768">
        <ele>240</ele>
        <time>2024-08-17T09:05:34Z</time>
      </trkpt>
      <trkpt lat="43.45246" lon="5.46765">
        <ele>240</ele>
        <time>2024-08-17T09:05:38Z</time>
      </trkpt>
      <trkpt lat="43.45259" lon="5.46725">
        <ele>239</ele>
        <time>2024-08-17T09:06:08Z</time>
      </trkpt>
      <trkpt lat="43.45261" lon="5.46721">
        <ele>239</ele>
        <time>2024-08-17T09:06:12Z</time>
      </trkpt>
      <trkpt lat="43.45261" lon="5.46714">
        <ele>239</ele>
        <time>2024-08-17T09:06:16Z</time>
      </trkpt>
      <trkpt lat="43.45261" lon="5.46708">
        <ele>239</ele>
        <time>2024-08-17T09:06:20Z</time>
      </trkpt>
      <trkpt lat="43.45259" lon="5.46703">
        <ele>239</ele>
        <time>2024-08-17T09:06:24Z</time>
      </trkpt>
      <trkpt lat="43.45255" lon="5.467">
        <ele>240</ele>
        <time>2024-08-17T09:06:28Z</time>
      </trkpt>
      <trkpt lat="43.45252" lon="5.467">
        <ele>240</ele>
        <time>2024-08-17T09:06:32Z</time>
      </trkpt>
      <trkpt lat="43.45248" lon="5.46702">
        <ele>240</ele>
        <time>2024-08-17T09:06:38Z</time>
      </trkpt>
      <trkpt lat="43.45245" lon="5.46707">
        <ele>240</ele>
        <time>2024-08-17T09:06:44Z</time>
      </trkpt>
      <trkpt lat="43.45225" lon="5.46724">
        <ele>240</ele>
        <time>2024-08-17T09:07:18Z</time>
      </trkpt>
      <trkpt lat="43.45198" lon="5.4674">
        <ele>242</ele>
        <time>2024-08-17T09:07:50Z</time>
      </trkpt>
      <trkpt lat="43.45179" lon="5.46745">
        <ele>243</ele>
        <time>2024-08-17T09:08:12Z</time>
      </trkpt>
      <trkpt lat="43.4517" lon="5.46748">
        <ele>243</ele>
        <time>2024-08-17T09:08:20Z</time>
      </trkpt>
      <trkpt lat="43.45149" lon="5.46748">
        <ele>244</ele>
        <time>2024-08-17T09:08:50Z</time>
      </trkpt>
      <trkpt lat="43.45119" lon="5.46745">
        <ele>245</ele>
        <time>2024-08-17T09:09:20Z</time>
      </trkpt>
      <trkpt lat="43.45111" lon="5.46745">
        <ele>246</ele>
        <time>2024-08-17T09:09:28Z</time>
      </trkpt>
      <trkpt lat="43.45087" lon="5.46747">
        <ele>247</ele>
        <time>2024-08-17T09:09:48Z</time>
      </trkpt>
      <trkpt lat="43.45083" lon="5.46746">
        <ele>247</ele>
        <time>2024-08-17T09:09:52Z</time>
      </trkpt>
      <trkpt lat="43.45078" lon="5.46746">
        <ele>248</ele>
        <time>2024-08-17T09:09:56Z</time>
      </trkpt>
      <trkpt lat="43.45068" lon="5.46746">
        <ele>248</ele>
        <time>2024-08-17T09:10:04Z</time>
      </trkpt>
      <trkpt lat="43.45058" lon="5.46747">
        <ele>249</ele>
        <time>2024-08-17T09:10:12Z</time>
      </trkpt>
      <trkpt lat="43.45053" lon="5.46748">
        <ele>249</ele>
        <time>2024-08-17T09:10:16Z</time>
      </trkpt>
      <trkpt lat="43.4505" lon="5.46751">
        <ele>249</ele>
        <time>2024-08-17T09:10:18Z</time>
      </trkpt>
      <trkpt lat="43.45047" lon="5.46756">
        <ele>249</ele>
        <time>2024-08-17T09:10:22Z</time>
      </trkpt>
      <trkpt lat="43.45043" lon="5.46759">
        <ele>249</ele>
        <time>2024-08-17T09:10:28Z</time>
      </trkpt>
      <trkpt lat="43.45041" lon="5.46754">
        <ele>249</ele>
        <time>2024-08-17T09:10:34Z</time>
      </trkpt>
      <trkpt lat="43.45038" lon="5.4675">
        <ele>250</ele>
        <time>2024-08-17T09:10:38Z</time>
      </trkpt>
      <trkpt lat="43.45029" lon="5.46748">
        <ele>250</ele>
        <time>2024-08-17T09:10:46Z</time>
      </trkpt>
      <trkpt lat="43.45024" lon="5.46745">
        <ele>250</ele>
        <time>2024-08-17T09:10:50Z</time>
      </trkpt>
      <trkpt lat="43.45004" lon="5.46735">
        <ele>250</ele>
        <time>2024-08-17T09:11:10Z</time>
      </trkpt>
      <trkpt lat="43.44983" lon="5.46728">
        <ele>251</ele>
        <time>2024-08-17T09:11:30Z</time>
      </trkpt>
      <trkpt lat="43.44978" lon="5.46726">
        <ele>251</ele>
        <time>2024-08-17T09:11:34Z</time>
      </trkpt>
      <trkpt lat="43.44959" lon="5.46719">
        <ele>251</ele>
        <time>2024-08-17T09:11:50Z</time>
      </trkpt>
      <trkpt lat="43.44954" lon="5.46718">
        <ele>251</ele>
        <time>2024-08-17T09:11:54Z</time>
      </trkpt>
      <trkpt lat="43.4495" lon="5.46717">
        <ele>251</ele>
        <time>2024-08-17T09:11:58Z</time>
      </trkpt>
      <trkpt lat="43.44936" lon="5.46714">
        <ele>252</ele>
        <time>2024-08-17T09:12:10Z</time>
      </trkpt>
      <trkpt lat="43.44916" lon="5.4671">
        <ele>252</ele>
        <time>2024-08-17T09:12:26Z</time>
      </trkpt>
      <trkpt lat="43.4488" lon="5.46692">
        <ele>254</ele>
        <time>2024-08-17T09:12:58Z</time>
      </trkpt>
      <trkpt lat="43.44846" lon="5.4668">
        <ele>255</ele>
        <time>2024-08-17T09:13:24Z</time>
      </trkpt>
      <trkpt lat="43.44833" lon="5.46671">
        <ele>255</ele>
        <time>2024-08-17T09:13:36Z</time>
      </trkpt>
      <trkpt lat="43.44797" lon="5.4665">
        <ele>256</ele>
        <time>2024-08-17T09:14:08Z</time>
      </trkpt>
      <trkpt lat="43.44783" lon="5.46641">
        <ele>256</ele>
        <time>2024-08-17T09:14:20Z</time>
      </trkpt>
      <trkpt lat="43.44754" lon="5.46617">
        <ele>257</ele>
        <time>2024-08-17T09:14:52Z</time>
      </trkpt>
      <trkpt lat="43.44751" lon="5.46613">
        <ele>257</ele>
        <time>2024-08-17T09:14:56Z</time>
      </trkpt>
      <trkpt lat="43.44747" lon="5.46609">
        <ele>257</ele>
        <time>2024-08-17T09:15:00Z</time>
      </trkpt>
      <trkpt lat="43.44738" lon="5.46604">
        <ele>258</ele>
        <time>2024-08-17T09:15:08Z</time>
      </trkpt>
      <trkpt lat="43.44733" lon="5.46602">
        <ele>258</ele>
        <time>2024-08-17T09:15:12Z</time>
      </trkpt>
      <trkpt lat="43.44727" lon="5.46599">
        <ele>258</ele>
        <time>2024-08-17T09:15:16Z</time>
      </trkpt>
      <trkpt lat="43.44723" lon="5.46597">
        <ele>258</ele>
        <time>2024-08-17T09:15:20Z</time>
      </trkpt>
      <trkpt lat="43.44705" lon="5.46589">
        <ele>258</ele>
        <time>2024-08-17T09:15:34Z</time>
      </trkpt>
      <trkpt lat="43.447" lon="5.46586">
        <ele>258</ele>
        <time>2024-08-17T09:15:38Z</time>
      </trkpt>
      <trkpt lat="43.44697" lon="5.46584">
        <ele>258</ele>
        <time>2024-08-17T09:15:42Z</time>
      </trkpt>
      <trkpt lat="43.44693" lon="5.46581">
        <ele>258</ele>
        <time>2024-08-17T09:15:46Z</time>
      </trkpt>
      <trkpt lat="43.44688" lon="5.46576">
        <ele>259</ele>
        <time>2024-08-17T09:15:50Z</time>
      </trkpt>
      <trkpt lat="43.44654" lon="5.46549">
        <ele>259</ele>
        <time>2024-08-17T09:16:22Z</time>
      </trkpt>
      <trkpt lat="43.4465" lon="5.46546">
        <ele>259</ele>
        <time>2024-08-17T09:16:26Z</time>
      </trkpt>
      <trkpt lat="43.44647" lon="5.46543">
        <ele>259</ele>
        <time>2024-08-17T09:16:30Z</time>
      </trkpt>
      <trkpt lat="43.44629" lon="5.46533">
        <ele>259</ele>
        <time>2024-08-17T09:16:46Z</time>
      </trkpt>
      <trkpt lat="43.44616" lon="5.46528">
        <ele>259</ele>
        <time>2024-08-17T09:16:58Z</time>
      </trkpt>
      <trkpt lat="43.44612" lon="5.46525">
        <ele>259</ele>
        <time>2024-08-17T09:17:02Z</time>
      </trkpt>
      <trkpt lat="43.44573" lon="5.46506">
        <ele>260</ele>
        <time>2024-08-17T09:17:32Z</time>
      </trkpt>
      <trkpt lat="43.44563" lon="5.465">
        <ele>260</ele>
        <time>2024-08-17T09:17:40Z</time>
      </trkpt>
      <trkpt lat="43.4455" lon="5.465">
        <ele>260</ele>
        <time>2024-08-17T09:17:52Z</time>
      </trkpt>
      <trkpt lat="43.44541" lon="5.46502">
        <ele>260</ele>
        <time>2024-08-17T09:17:58Z</time>
      </trkpt>
      <trkpt lat="43.4453" lon="5.46507">
        <ele>260</ele>
        <time>2024-08-17T09:18:04Z</time>
      </trkpt>
      <trkpt lat="43.4452" lon="5.46515">
        <ele>260</ele>
        <time>2024-08-17T09:18:12Z</time>
      </trkpt>
      <trkpt lat="43.44517" lon="5.46521">
        <ele>260</ele>
        <time>2024-08-17T09:18:16Z</time>
      </trkpt>
      <trkpt lat="43.44499" lon="5.4654">
        <ele>260</ele>
        <time>2024-08-17T09:18:32Z</time>
      </trkpt>
      <trkpt lat="43.4449" lon="5.46542">
        <ele>260</ele>
        <time>2024-08-17T09:18:40Z</time>
      </trkpt>
      <trkpt lat="43.44466" lon="5.46537">
        <ele>260</ele>
        <time>2024-08-17T09:19:00Z</time>
      </trkpt>
      <trkpt lat="43.44457" lon="5.46538">
        <ele>261</ele>
        <time>2024-08-17T09:19:06Z</time>
      </trkpt>
      <trkpt lat="43.44446" lon="5.46538">
        <ele>261</ele>
        <time>2024-08-17T09:19:14Z</time>
      </trkpt>
      <trkpt lat="43.44429" lon="5.4654">
        <ele>261</ele>
        <time>2024-08-17T09:19:26Z</time>
      </trkpt>
      <trkpt lat="43.44389" lon="5.46534">
        <ele>262</ele>
        <time>2024-08-17T09:19:58Z</time>
      </trkpt>
      <trkpt lat="43.44348" lon="5.46522">
        <ele>263</ele>
        <time>2024-08-17T09:20:30Z</time>
      </trkpt>
      <trkpt lat="43.44309" lon="5.46506">
        <ele>264</ele>
        <time>2024-08-17T09:21:02Z</time>
      </trkpt>
      <trkpt lat="43.44303" lon="5.46504">
        <ele>264</ele>
        <time>2024-08-17T09:21:06Z</time>
      </trkpt>
      <trkpt lat="43.44299" lon="5.46504">
        <ele>264</ele>
        <time>2024-08-17T09:21:14Z</time>
      </trkpt>
      <trkpt lat="43.44295" lon="5.46502">
        <ele>264</ele>
        <time>2024-08-17T09:21:18Z</time>
      </trkpt>
      <trkpt lat="43.44291" lon="5.46503">
        <ele>264</ele>
        <time>2024-08-17T09:21:22Z</time>
      </trkpt>
      <trkpt lat="43.44284" lon="5.465">
        <ele>264</ele>
        <time>2024-08-17T09:21:30Z</time>
      </trkpt>
      <trkpt lat="43.44279" lon="5.46496">
        <ele>264</ele>
        <time>2024-08-17T09:21:36Z</time>
      </trkpt>
      <trkpt lat="43.44266" lon="5.46491">
        <ele>264</ele>
        <time>2024-08-17T09:21:48Z</time>
      </trkpt>
      <trkpt lat="43.44252" lon="5.46488">
        <ele>264</ele>
        <time>2024-08-17T09:22:00Z</time>
      </trkpt>
      <trkpt lat="43.44242" lon="5.46484">
        <ele>264</ele>
        <time>2024-08-17T09:22:08Z</time>
      </trkpt>
      <trkpt lat="43.44208" lon="5.46487">
        <ele>264</ele>
        <time>2024-08-17T09:22:38Z</time>
      </trkpt>
      <trkpt lat="43.44203" lon="5.46486">
        <ele>264</ele>
        <time>2024-08-17T09:22:42Z</time>
      </trkpt>
      <trkpt lat="43.44184" lon="5.46486">
        <ele>264</ele>
        <time>2024-08-17T09:22:58Z</time>
      </trkpt>
      <trkpt lat="43.4417" lon="5.46487">
        <ele>264</ele>
        <time>2024-08-17T09:23:10Z</time>
      </trkpt>
      <trkpt lat="43.4416" lon="5.46483">
        <ele>264</ele>
        <time>2024-08-17T09:23:20Z</time>
      </trkpt>
      <trkpt lat="43.44155" lon="5.46484">
        <ele>264</ele>
        <time>2024-08-17T09:23:24Z</time>
      </trkpt>
      <trkpt lat="43.44135" lon="5.46478">
        <ele>265</ele>
        <time>2024-08-17T09:23:40Z</time>
      </trkpt>
      <trkpt lat="43.44131" lon="5.46474">
        <ele>265</ele>
        <time>2024-08-17T09:23:44Z</time>
      </trkpt>
      <trkpt lat="43.44132" lon="5.4647">
        <ele>265</ele>
        <time>2024-08-17T09:23:48Z</time>
      </trkpt>
      <trkpt lat="43.44135" lon="5.46459">
        <ele>265</ele>
        <time>2024-08-17T09:24:00Z</time>
      </trkpt>
      <trkpt lat="43.44141" lon="5.4645">
        <ele>265</ele>
        <time>2024-08-17T09:24:08Z</time>
      </trkpt>
      <trkpt lat="43.44156" lon="5.46415">
        <ele>267</ele>
        <time>2024-08-17T09:24:30Z</time>
      </trkpt>
      <trkpt lat="43.44159" lon="5.46409">
        <ele>267</ele>
        <time>2024-08-17T09:24:36Z</time>
      </trkpt>
      <trkpt lat="43.44161" lon="5.46397">
        <ele>267</ele>
        <time>2024-08-17T09:24:44Z</time>
      </trkpt>
      <trkpt lat="43.44164" lon="5.46393">
        <ele>267</ele>
        <time>2024-08-17T09:24:48Z</time>
      </trkpt>
      <trkpt lat="43.44169" lon="5.46382">
        <ele>268</ele>
        <time>2024-08-17T09:24:56Z</time>
      </trkpt>
      <trkpt lat="43.44172" lon="5.46379">
        <ele>268</ele>
        <time>2024-08-17T09:25:00Z</time>
      </trkpt>
      <trkpt lat="43.44175" lon="5.46376">
        <ele>268</ele>
        <time>2024-08-17T09:25:04Z</time>
      </trkpt>
      <trkpt lat="43.44184" lon="5.46375">
        <ele>268</ele>
        <time>2024-08-17T09:25:12Z</time>
      </trkpt>
      <trkpt lat="43.44188" lon="5.46374">
        <ele>268</ele>
        <time>2024-08-17T09:25:16Z</time>
      </trkpt>
      <trkpt lat="43.44197" lon="5.46374">
        <ele>269</ele>
        <time>2024-08-17T09:25:24Z</time>
      </trkpt>
      <trkpt lat="43.44207" lon="5.46367">
        <ele>269</ele>
        <time>2024-08-17T09:25:32Z</time>
      </trkpt>
      <trkpt lat="43.4421" lon="5.46358">
        <ele>269</ele>
        <time>2024-08-17T09:25:36Z</time>
      </trkpt>
      <trkpt lat="43.44212" lon="5.46351">
        <ele>268</ele>
        <time>2024-08-17T09:25:40Z</time>
      </trkpt>
      <trkpt lat="43.44216" lon="5.46343">
        <ele>268</ele>
        <time>2024-08-17T09:25:44Z</time>
      </trkpt>
      <trkpt lat="43.44217" lon="5.46335">
        <ele>268</ele>
        <time>2024-08-17T09:25:48Z</time>
      </trkpt>
      <trkpt lat="43.44217" lon="5.46327">
        <ele>268</ele>
        <time>2024-08-17T09:25:52Z</time>
      </trkpt>
      <trkpt lat="43.44218" lon="5.4632">
        <ele>268</ele>
        <time>2024-08-17T09:25:56Z</time>
      </trkpt>
      <trkpt lat="43.44217" lon="5.46313">
        <ele>268</ele>
        <time>2024-08-17T09:26:00Z</time>
      </trkpt>
      <trkpt lat="43.44215" lon="5.46306">
        <ele>268</ele>
        <time>2024-08-17T09:26:04Z</time>
      </trkpt>
      <trkpt lat="43.44216" lon="5.46299">
        <ele>268</ele>
        <time>2024-08-17T09:26:08Z</time>
      </trkpt>
      <trkpt lat="43.44211" lon="5.46288">
        <ele>268</ele>
        <time>2024-08-17T09:26:14Z</time>
      </trkpt>
      <trkpt lat="43.44208" lon="5.46282">
        <ele>267</ele>
        <time>2024-08-17T09:26:18Z</time>
      </trkpt>
      <trkpt lat="43.44207" lon="5.46275">
        <ele>267</ele>
        <time>2024-08-17T09:26:22Z</time>
      </trkpt>
      <trkpt lat="43.44211" lon="5.46264">
        <ele>267</ele>
        <time>2024-08-17T09:26:30Z</time>
      </trkpt>
      <trkpt lat="43.44217" lon="5.46257">
        <ele>267</ele>
        <time>2024-08-17T09:26:38Z</time>
      </trkpt>
      <trkpt lat="43.44219" lon="5.46252">
        <ele>267</ele>
        <time>2024-08-17T09:26:44Z</time>
      </trkpt>
      <trkpt lat="43.44217" lon="5.46248">
        <ele>266</ele>
        <time>2024-08-17T09:26:50Z</time>
      </trkpt>
      <trkpt lat="43.44214" lon="5.46238">
        <ele>265</ele>
        <time>2024-08-17T09:27:22Z</time>
      </trkpt>
      <trkpt lat="43.44213" lon="5.46232">
        <ele>265</ele>
        <time>2024-08-17T09:27:26Z</time>
      </trkpt>
      <trkpt lat="43.44211" lon="5.46214">
        <ele>264</ele>
        <time>2024-08-17T09:27:38Z</time>
      </trkpt>
      <trkpt lat="43.44209" lon="5.4621">
        <ele>264</ele>
        <time>2024-08-17T09:27:42Z</time>
      </trkpt>
      <trkpt lat="43.44205" lon="5.46213">
        <ele>264</ele>
        <time>2024-08-17T09:27:46Z</time>
      </trkpt>
      <trkpt lat="43.44197" lon="5.46217">
        <ele>264</ele>
        <time>2024-08-17T09:27:56Z</time>
      </trkpt>
      <trkpt lat="43.44193" lon="5.46218">
        <ele>264</ele>
        <time>2024-08-17T09:28:00Z</time>
      </trkpt>
      <trkpt lat="43.44189" lon="5.46216">
        <ele>264</ele>
        <time>2024-08-17T09:28:06Z</time>
      </trkpt>
      <trkpt lat="43.44187" lon="5.46211">
        <ele>263</ele>
        <time>2024-08-17T09:28:24Z</time>
      </trkpt>
      <trkpt lat="43.4419" lon="5.46206">
        <ele>263</ele>
        <time>2024-08-17T09:28:28Z</time>
      </trkpt>
      <trkpt lat="43.44195" lon="5.46204">
        <ele>263</ele>
        <time>2024-08-17T09:28:32Z</time>
      </trkpt>
      <trkpt lat="43.442" lon="5.46203">
        <ele>263</ele>
        <time>2024-08-17T09:28:38Z</time>
      </trkpt>
      <trkpt lat="43.44202" lon="5.46198">
        <ele>262</ele>
        <time>2024-08-17T09:28:42Z</time>
      </trkpt>
      <trkpt lat="43.44202" lon="5.46192">
        <ele>262</ele>
        <time>2024-08-17T09:28:46Z</time>
      </trkpt>
      <trkpt lat="43.44201" lon="5.46187">
        <ele>262</ele>
        <time>2024-08-17T09:28:50Z</time>
      </trkpt>
      <trkpt lat="43.442" lon="5.46182">
        <ele>262</ele>
        <time>2024-08-17T09:28:54Z</time>
      </trkpt>
      <trkpt lat="43.44196" lon="5.46187">
        <ele>262</ele>
        <time>2024-08-17T09:29:00Z</time>
      </trkpt>
      <trkpt lat="43.44195" lon="5.46182">
        <ele>258</ele>
        <time>2024-08-17T09:36:26Z</time>
      </trkpt>
    </trkseg>
  </trk>
</gpx>